Greeley, Kansas
Current Conditions -  °F | °C
As of 12:53 PM on Thursday 30 Oct 2014 (Local Time) from KIXD Reporting Station
Clear Clear  
Wind Chill: 66°   Ceiling: Unl
Heat Index: 66°   Visibility: 10mi
Dew Point: 41°   Wind: 21mph
Humidity: 40%   Direction: 320°NW
Pressure: 30.03"   Gusts: 31mph
Location:  38.37°N, 95.13°W
Report Text: KIXD 301753Z 32018G27KT 10SM CLR 19/05 A3003 RMK AO2 PK WND 33027/1753 SLP167 T01890050 10189 20078 57001
Loading
Personal Weather Stations






























Interactive Weather Map
Tropical Storm Tracking
New forecast layout! Learn more

10-Day Weather Forecast

Advertisements
Track Severe Weather on mobile